ΕΜΥ, Εθνική Μετεωρολογική Υπηρεσία - Δελτία Καιρού, Προγνώσεις

ΑΕΡΟΝΑΥΤΙΛΙΑ

GREEK AIRPORTS CODES

TAF LGEL 240500Z 2406/2506 35018KT 9999 SCT020 BECMG 2408/2410 SCT020 BKN060 TEMPO 2410/2506 3000 SNRA FEW010 SCT020 OVC060=

EUROPEAN AIRPORTS CODES

LFPO 241000Z 09003KT CAVOK 04/01 Q1032 NOSIG=